INDIA METEOROLOGICAL DEPARTMENT, R.M.C. NEW DELHI
Dated:06-12-2019
METARS


Ahmedabad  
VAAH 052130Z 06006KT 4000 FU SCT080 21/11 Q1017 NOSIG=
Allahabad  
VEAB 052130Z VRB01KT 0800 +FG FEW250 13/13 Q1019 NOSIG=
Aurangabad 
VAAU 052100Z 00000KT 4000 HZ NSC 17/14 Q1018 NOSIG=
Bangalore  
VOBL 052200Z VRB02KT 2000 BR SCT006 SCT012 17/17 Q1018 TEMPO 1500 BR=
Bhubaneswar
VEBS 052200Z 00000KT 2500 BR NSC 16/14 Q1016 NOSIG=
Chennai    
VOMM 052200Z 05006KT 4000 HZ SCT020 BKN100 26/20 Q1014 NOSIG=
Coimbatore 
VOCB 052200Z NIL=
Colombo    
VCBI 052140Z VRB02KT 8000 SCT016 BKN040 24/24 Q1011 NOSIG=
Delhi      
VIDP 052200Z 00000KT 1000 R28/P2000 R29/P2000 BR FEW100 14/10 Q1020 BECMG 0800 MIFG=
Gauhati    
VEGT 052200Z 00000KT 2000 BR FEW020 18/17 Q1019 NOSIG=
Gaya       
VEGY 052200Z NIL=
Goa        
VOGO 052130Z 07006KT 4500 HZ SCT220 26/18 Q1012 NOSIG=
Hyderabad  
VOHS 052200Z 11003KT 3000 BR SCT015 16/15 Q1018 NOSIG=
Jaipur     
VIJP 052200Z 00000KT 2000 FU FEW100 12/06 Q1020 NOSIG=
Kochi      
VOCI 052200Z 07006KT 3500 BR FEW015 SCT090 24/21 Q1010 NOSIG=
Kolkata    
VECC 052200Z 00000KT 2200 HZ NSC 16/15 Q1015 NOSIG=
Kozhikode  
VOCL 052200Z 06002KT 5000 HZ FEW015 23/22 Q1010 NOSIG=
Lucknow    
VILK 052130Z VRB02KT 1000 R27/1200 RMID/1600 R09/1600 BR NSC 12/11 Q1019 NOSIG=
Mumbai     
VABB 052200Z 04005KT 3000 HZ FEW020 SCT100 28/21 Q1013 NOSIG=
Nagpur     
VANP 052200Z 01002KT 3000 HZ FEW100 12/08 Q1018 NOSIG=
Patna      
VEPT 052200Z NIL=
Surat     
VASU 052100Z 06003KT 4000 HZ BKN080 26/20 Q1015 NOSIG=
Ranchi     
VERC 052100Z 00000KT 2000 HZ NSC 11/09 Q1020 NOSIG=
Trichy     
VOTR 052200Z 01005KT 3000 BR SCT018 BKN100 24/21 Q1013 NOSIG=
Trivandrum 
VOTV 052200Z 09010G20KT 3000 BR SCT012 FEW025CB BKN080 28/26 Q1008 NOSIG=
Varanasi   
VEBN 052030Z 27002KT 1500 BR FEW100 14/12 Q1018 NOSIG=
Vizag      
VOVZ 052100Z VRB02KT 3000 BR FEW018 20/18 Q1016 NOSIG=
Male       
VRMM 052200Z 11013KT 9999 SCT017TCU BKN270 28/25 Q1008 NOSIG=
Gan        
VRMG 052200Z 09004KT 9000 TS SCT017 FEW018CB BKN260 27/26 Q1009 CB N,NE,SE TEMPO 5000 -TSRA=
Kathmandu  
VNKT 052200Z NIL=
Dhaka      
VGHS 052200Z 00000KT 3500 HZ NSC 20/16 Q1017 NOSIG=
Colombo    
VCBI 052140Z VRB02KT 8000 SCT016 BKN040 24/24 Q1011 NOSIG=
Karachi    
OPKC 052200Z 04009KT 6000 SCT100 22/M02 Q1018 NOSIG=
Lahore     
OPLA 052155Z 00000KT 2000 BR FEW100 10/08 Q1022 BECMG 1000 RMK QFE996 RMK A30.16=
Gorakhpur  
VEGK 052100Z 00000KT 0800 FG SCT250 11/11 Q1019 NOSIG=
Agra       
VIAG 052130Z 00000KT 0800 FG SCT250 09/09 Q1020 NOSIG=
Pune       
VAPO 052130Z VRB01KT 4000 HZ SCT030 BKN100 21/16 Q1019 NOSIG=
Jamnagar   
VAJM 052130Z 07006KT 5000 HZ BKN100 BKN250 24/16 Q1016 NOSIG=
Pathankot   
VIPK 052130Z VRB02KT 3500 BR SKC 09/09 Q1022 NOSIG=